createdAt,value
2023-03-31T00:02:03.077Z,77.11
2023-03-31T00:07:05.992Z,76.74
2023-03-31T00:12:07.257Z,77.00
2023-03-31T00:17:08.526Z,77.06
2023-03-31T00:22:09.763Z,77.08
2023-03-31T00:27:11.656Z,78.11
2023-03-31T00:32:14.651Z,77.91
2023-03-31T00:37:16.073Z,76.15
2023-03-31T00:42:17.398Z,75.45
2023-03-31T00:47:19.780Z,75.11
2023-03-31T00:52:24.522Z,75.17
2023-03-31T00:57:26.284Z,76.71
2023-03-31T01:02:27.718Z,76.18
2023-03-31T01:07:29.708Z,76.22
2023-03-31T01:12:31.217Z,75.30
2023-03-31T01:17:32.617Z,74.92
2023-03-31T01:22:33.998Z,75.96
2023-03-31T01:27:35.244Z,75.44
2023-03-31T01:32:36.582Z,74.98
2023-03-31T01:37:37.940Z,74.78
2023-03-31T01:42:39.222Z,74.36
2023-03-31T01:47:40.835Z,74.90
2023-03-31T01:52:42.357Z,74.91
2023-03-31T01:57:43.683Z,75.19
2023-03-31T02:02:44.973Z,76.08
2023-03-31T02:07:46.240Z,75.96
2023-03-31T02:12:47.496Z,76.48
2023-03-31T02:17:48.940Z,76.56
2023-03-31T02:22:50.656Z,77.38
2023-03-31T02:27:52.112Z,76.84
2023-03-31T02:32:53.456Z,76.90
2023-03-31T02:37:54.997Z,76.92
2023-03-31T02:42:57.092Z,77.24
2023-03-31T02:47:58.431Z,77.83
2023-03-31T02:52:59.766Z,77.66
2023-03-31T02:58:01.509Z,77.54
2023-03-31T03:03:02.859Z,76.93
2023-03-31T03:08:04.227Z,77.24
2023-03-31T03:13:05.611Z,77.35
2023-03-31T03:18:06.928Z,77.42
2023-03-31T03:23:08.367Z,77.34
2023-03-31T03:28:09.671Z,77.63
2023-03-31T03:33:11.105Z,77.83
2023-03-31T03:38:12.407Z,78.19
2023-03-31T03:43:13.631Z,77.83
2023-03-31T03:48:15.194Z,78.21
2023-03-31T03:53:16.541Z,78.39
2023-03-31T03:58:19.726Z,78.27
2023-03-31T04:03:20.995Z,78.00
2023-03-31T04:08:22.292Z,78.13
2023-03-31T04:13:23.557Z,80.63
2023-03-31T04:18:24.839Z,83.57
2023-03-31T04:23:26.710Z,84.13
2023-03-31T04:28:34.632Z,85.60
2023-03-31T04:33:38.876Z,87.50
2023-03-31T04:38:40.160Z,88.54
2023-03-31T04:43:41.424Z,86.62
2023-03-31T04:48:42.687Z,85.33
2023-03-31T04:53:43.990Z,86.02
2023-03-31T04:58:45.278Z,86.90
2023-03-31T05:03:47.993Z,87.91
2023-03-31T05:08:49.480Z,87.59
2023-03-31T05:13:50.861Z,87.82
2023-03-31T05:18:52.098Z,87.74
2023-03-31T05:23:53.335Z,87.68
2023-03-31T05:28:54.734Z,88.20
2023-03-31T05:33:57.870Z,88.02
2023-03-31T05:38:59.111Z,87.38
2023-03-31T05:44:00.493Z,87.86
2023-03-31T05:49:02.747Z,88.69
2023-03-31T05:54:04.025Z,89.83
2023-03-31T05:59:05.569Z,89.32
2023-03-31T06:04:06.857Z,87.47
2023-03-31T06:09:08.197Z,87.22
2023-03-31T06:14:09.436Z,88.61
2023-03-31T06:19:10.922Z,86.81
2023-03-31T06:24:12.316Z,85.21
2023-03-31T06:29:13.573Z,87.00
2023-03-31T06:34:14.796Z,88.93
2023-03-31T06:39:16.252Z,91.23
2023-03-31T06:44:19.489Z,92.77
2023-03-31T06:49:21.158Z,91.92
2023-03-31T06:54:22.596Z,89.05
2023-03-31T06:59:23.889Z,87.68
2023-03-31T07:04:25.135Z,86.22
2023-03-31T07:09:26.358Z,86.40
2023-03-31T07:14:27.598Z,86.12
2023-03-31T07:19:28.805Z,86.53
2023-03-31T07:24:30.977Z,86.12
2023-03-31T07:29:32.193Z,84.96
2023-03-31T07:34:35.568Z,83.26
2023-03-31T07:39:38.746Z,85.30
2023-03-31T07:44:39.990Z,86.68
2023-03-31T07:49:41.294Z,87.92
2023-03-31T07:54:42.562Z,87.72
2023-03-31T07:59:43.829Z,86.79
2023-03-31T08:04:45.360Z,85.84
2023-03-31T08:09:46.646Z,86.17
2023-03-31T08:14:47.991Z,84.69
2023-03-31T08:19:50.239Z,84.27
2023-03-31T08:24:51.472Z,84.01
2023-03-31T08:29:52.788Z,86.28
2023-03-31T08:34:54.077Z,87.55
2023-03-31T08:39:55.745Z,88.48
2023-03-31T08:44:56.992Z,91.80
2023-03-31T08:49:58.866Z,94.71
2023-03-31T08:55:00.372Z,95.18
2023-03-31T09:00:06.912Z,93.32
2023-03-31T09:05:08.223Z,91.41
2023-03-31T09:10:09.516Z,89.94
2023-03-31T09:15:10.918Z,92.12
2023-03-31T09:20:13.470Z,92.50
2023-03-31T09:25:14.861Z,92.06
2023-03-31T09:30:16.139Z,94.33
2023-03-31T09:35:17.484Z,96.04
2023-03-31T09:40:18.797Z,97.23
2023-03-31T09:45:20.198Z,96.54
2023-03-31T09:50:25.181Z,96.22
2023-03-31T09:55:38.930Z,94.29
2023-03-31T10:00:41.624Z,93.79
2023-03-31T10:05:43.876Z,92.10
2023-03-31T10:10:45.466Z,89.17
2023-03-31T10:15:46.757Z,88.77
2023-03-31T10:20:48.060Z,88.27
2023-03-31T10:25:49.316Z,85.10
2023-03-31T10:30:50.556Z,83.50
2023-03-31T10:35:51.822Z,78.07
2023-03-31T10:40:53.235Z,77.68
2023-03-31T10:45:56.355Z,76.68
2023-03-31T10:50:57.965Z,73.97
2023-03-31T10:55:59.321Z,74.21
2023-03-31T11:01:00.945Z,73.44
2023-03-31T11:06:02.196Z,70.38
2023-03-31T11:11:03.559Z,71.75
2023-03-31T11:16:05.264Z,70.39
2023-03-31T11:21:06.864Z,70.80
2023-03-31T11:26:08.382Z,68.29
2023-03-31T11:31:11.285Z,65.10
2023-03-31T11:36:12.644Z,62.82
2023-03-31T11:41:13.945Z,59.52
2023-03-31T11:46:15.377Z,59.26
2023-03-31T11:51:16.717Z,57.40
2023-03-31T11:56:17.999Z,60.04
2023-03-31T12:01:19.236Z,61.50
2023-03-31T12:06:20.738Z,55.74
2023-03-31T12:11:22.198Z,55.73
2023-03-31T12:16:23.587Z,54.82
2023-03-31T12:21:25.038Z,56.05
2023-03-31T12:26:26.378Z,52.21
2023-03-31T12:31:27.761Z,49.19
2023-03-31T12:36:29.136Z,48.06
2023-03-31T12:41:36.149Z,46.31
2023-03-31T12:46:37.436Z,48.07
2023-03-31T12:51:40.682Z,55.28
2023-03-31T12:56:42.262Z,65.13
2023-03-31T13:01:44.135Z,62.80
2023-03-31T13:06:45.492Z,61.07
2023-03-31T13:11:49.783Z,56.17
2023-03-31T13:22:12.301Z,48.37
2023-03-31T13:27:13.621Z,44.65
2023-03-31T13:32:14.921Z,45.74
2023-03-31T13:37:16.599Z,49.95
2023-03-31T13:42:17.855Z,71.40
2023-03-31T13:47:19.653Z,76.66
2023-03-31T13:52:20.995Z,80.09
2023-03-31T13:57:22.419Z,80.34
2023-03-31T14:02:23.997Z,82.81
2023-03-31T14:07:25.388Z,82.55
2023-03-31T14:12:27.197Z,80.13
2023-03-31T14:17:28.489Z,76.57
2023-03-31T14:22:32.422Z,77.49
2023-03-31T14:27:34.434Z,69.49
2023-03-31T14:32:37.112Z,65.34
2023-03-31T14:37:38.468Z,61.75
2023-03-31T14:42:39.853Z,61.18
2023-03-31T14:47:41.185Z,57.69
2023-03-31T14:52:42.562Z,56.91
2023-03-31T14:57:43.848Z,57.60
2023-03-31T15:02:45.171Z,59.92
2023-03-31T15:07:46.472Z,56.69
2023-03-31T15:12:47.746Z,53.33
2023-03-31T15:17:49.157Z,53.15
2023-03-31T15:22:50.652Z,51.66
2023-03-31T15:27:52.762Z,51.36
2023-03-31T15:32:59.051Z,51.85
2023-03-31T15:38:08.721Z,49.25
2023-03-31T15:43:24.280Z,49.37
2023-03-31T15:48:28.303Z,48.57
2023-03-31T15:53:29.558Z,49.82
2023-03-31T15:58:30.770Z,49.54
2023-03-31T16:03:35.223Z,50.52
2023-03-31T16:08:37.467Z,52.97
2023-03-31T16:13:38.785Z,52.63
2023-03-31T16:18:40.172Z,52.13
2023-03-31T16:23:41.982Z,52.10
2023-03-31T16:28:43.262Z,52.90
2023-03-31T16:33:44.716Z,54.39
2023-03-31T16:38:46.947Z,53.92
2023-03-31T16:43:49.574Z,53.39
2023-03-31T16:48:50.900Z,54.13
2023-03-31T16:53:52.380Z,53.06
2023-03-31T16:58:53.797Z,53.80
2023-03-31T17:03:55.384Z,53.55
2023-03-31T17:08:56.684Z,53.79
2023-03-31T17:14:00.019Z,53.79
2023-03-31T17:19:01.500Z,53.75
2023-03-31T17:24:03.347Z,54.88
2023-03-31T17:29:04.801Z,55.15
2023-03-31T17:34:06.055Z,55.05
2023-03-31T17:39:07.439Z,54.68
2023-03-31T17:44:08.853Z,54.75
2023-03-31T17:49:10.111Z,55.11
2023-03-31T17:54:11.491Z,53.88
2023-03-31T17:59:12.760Z,53.54
2023-03-31T18:04:14.685Z,54.34
2023-03-31T18:09:16.797Z,55.52
2023-03-31T18:14:20.571Z,54.43
2023-03-31T18:19:23.178Z,55.41
2023-03-31T18:24:24.569Z,57.19
2023-03-31T18:29:25.982Z,57.23
2023-03-31T18:34:27.346Z,57.39
2023-03-31T18:39:28.613Z,57.38
2023-03-31T18:44:29.972Z,59.01
2023-03-31T18:49:31.730Z,60.01
2023-03-31T18:54:33.087Z,60.73
2023-03-31T18:59:34.303Z,61.04
2023-03-31T19:04:35.758Z,60.88
2023-03-31T19:09:37.562Z,60.93
2023-03-31T19:14:40.910Z,60.11
2023-03-31T19:19:42.279Z,60.36
2023-03-31T19:24:45.024Z,60.87
2023-03-31T19:29:46.447Z,60.91
2023-03-31T19:34:47.804Z,62.50
2023-03-31T19:39:49.093Z,62.18
2023-03-31T19:44:50.330Z,62.96
2023-03-31T19:50:04.710Z,63.17
2023-03-31T19:55:05.949Z,62.70
2023-03-31T20:00:08.008Z,63.37
2023-03-31T20:05:09.332Z,63.20
2023-03-31T20:10:13.875Z,65.04
2023-03-31T20:15:15.512Z,65.60
2023-03-31T20:20:17.282Z,66.35
2023-03-31T20:25:18.486Z,68.48
2023-03-31T20:30:19.717Z,70.74
2023-03-31T20:35:20.977Z,74.46
2023-03-31T20:40:22.570Z,77.74
2023-03-31T20:45:24.067Z,78.68
2023-03-31T20:50:25.291Z,79.31
2023-03-31T20:55:26.732Z,80.43
2023-03-31T21:00:27.964Z,78.89
2023-03-31T21:05:29.481Z,79.90
2023-03-31T21:10:30.943Z,80.73
2023-03-31T21:15:32.443Z,78.87
2023-03-31T21:20:33.969Z,78.37
2023-03-31T21:25:35.340Z,77.93
2023-03-31T21:30:37.558Z,78.73
2023-03-31T21:35:38.824Z,78.97
2023-03-31T21:40:40.743Z,78.72
2023-03-31T21:45:42.288Z,78.46
2023-03-31T21:50:43.596Z,78.28
2023-03-31T21:55:44.940Z,78.66
2023-03-31T22:00:46.587Z,77.77
2023-03-31T22:05:47.991Z,77.44
2023-03-31T22:10:49.478Z,77.71
2023-03-31T22:15:51.075Z,77.00
2023-03-31T22:20:52.356Z,77.74
2023-03-31T22:25:53.638Z,77.84
2023-03-31T22:30:54.902Z,77.25
2023-03-31T22:35:56.466Z,77.63
2023-03-31T22:40:57.736Z,77.42
2023-03-31T22:45:58.944Z,77.49
2023-03-31T22:51:00.177Z,76.98
2023-03-31T22:56:02.025Z,76.85
2023-03-31T23:01:03.296Z,77.26
2023-03-31T23:06:05.117Z,75.87
2023-03-31T23:11:06.513Z,76.17
2023-03-31T23:16:07.795Z,75.18
2023-03-31T23:21:09.074Z,74.83
2023-03-31T23:26:10.347Z,74.04
2023-03-31T23:31:13.336Z,72.81
2023-03-31T23:36:17.475Z,73.02
2023-03-31T23:41:18.765Z,74.10
2023-03-31T23:46:20.140Z,74.23
2023-03-31T23:51:21.385Z,73.87
2023-03-31T23:56:22.709Z,74.85
